Time;durP1;ratioP1;P1;durP2;ratioP2;P2;SDS_P1;SDS_P2;PMS_P1;PMS_P2;Temp;Humidity;BMP_temperature;BMP_pressure;BME280_temperature;BME280_humidity;BME280_pressure;Samples;Min_cycle;Max_cycle;Signal;HPM_P1;HPM_P2
2023/04/10 00:00:06;;;;;;;23.80;13.13;;;;;;;;;;5075230;28;20460;-65
2023/04/10 00:02:32;;;;;;;24.08;13.20;;;;;;;;;;5075114;28;20098;-70
2023/04/10 00:04:58;;;;;;;28.40;13.20;;;;;;;;;;5075155;28;20029;-67
2023/04/10 00:07:24;;;;;;;35.67;14.80;;;;;;;;;;5074518;28;20116;-64
2023/04/10 00:09:49;;;;;;;33.92;15.07;;;;;;;;;;5074972;28;20104;-64
2023/04/10 00:12:15;;;;;;;41.00;15.02;;;;;;;;;;5074832;28;20375;-68
2023/04/10 00:14:41;;;;;;;90.28;23.05;;;;;;;;;;5075015;28;20409;-64
2023/04/10 00:17:06;;;;;;;91.45;20.58;;;;;;;;;;5056995;28;20028;-70
2023/04/10 00:19:32;;;;;;;43.35;16.27;;;;;;;;;;5074834;28;20107;-63
2023/04/10 00:21:57;;;;;;;28.05;11.20;;;;;;;;;;5074733;28;20021;-73
2023/04/10 00:24:23;;;;;;;23.40;11.15;;;;;;;;;;5074784;28;20068;-72
2023/04/10 00:26:48;;;;;;;34.85;12.00;;;;;;;;;;5074769;28;20032;-75
2023/04/10 00:29:14;;;;;;;26.40;11.93;;;;;;;;;;5074522;28;20032;-64
2023/04/10 00:31:39;;;;;;;29.83;13.60;;;;;;;;;;5074574;28;20036;-75
2023/04/10 00:34:05;;;;;;;28.67;12.25;;;;;;;;;;5074501;28;20109;-68
2023/04/10 00:36:31;;;;;;;29.33;13.93;;;;;;;;;;5074462;28;20101;-74
2023/04/10 00:38:58;;;;;;;31.42;12.65;;;;;;;;;;5074446;28;20107;-73
2023/04/10 00:41:24;;;;;;;28.27;13.25;;;;;;;;;;5074394;28;20548;-67
2023/04/10 00:43:49;;;;;;;32.05;11.98;;;;;;;;;;5074455;28;20062;-71
2023/04/10 00:46:15;;;;;;;33.42;13.23;;;;;;;;;;5074363;28;20020;-66
2023/04/10 00:48:40;;;;;;;21.58;11.43;;;;;;;;;;5074363;28;20371;-73
2023/04/10 00:51:06;;;;;;;26.15;12.15;;;;;;;;;;5074224;28;20027;-72
2023/04/10 00:53:31;;;;;;;25.65;11.60;;;;;;;;;;5074208;28;20361;-74
2023/04/10 00:55:59;;;;;;;25.98;12.30;;;;;;;;;;5073291;28;20031;-66
2023/04/10 00:58:25;;;;;;;19.67;10.48;;;;;;;;;;5065707;28;20036;-71
2023/04/10 01:00:51;;;;;;;25.33;11.10;;;;;;;;;;5073973;28;20045;-68
2023/04/10 01:03:19;;;;;;;22.05;11.02;;;;;;;;;;5073795;28;20142;-63
2023/04/10 01:06:03;;;;;;;22.60;11.20;;;;;;;;;;5074019;28;20024;-70
2023/04/10 01:08:49;;;;;;;21.85;10.50;;;;;;;;;;5073120;28;20107;-63
2023/04/10 01:11:31;;;;;;;23.10;10.55;;;;;;;;;;5011686;28;20046;-63
2023/04/10 01:14:15;;;;;;;20.30;10.70;;;;;;;;;;5012019;28;20042;-64
2023/04/10 01:16:52;;;;;;;19.50;10.10;;;;;;;;;;5011977;28;20030;-65
2023/04/10 01:19:35;;;;;;;19.67;10.60;;;;;;;;;;5011603;28;20034;-64
2023/04/10 01:22:02;;;;;;;22.90;11.20;;;;;;;;;;5011912;28;20467;-65
2023/04/10 01:24:59;;;;;;;21.10;11.60;;;;;;;;;;5011730;28;20030;-63
2023/04/10 01:27:27;;;;;;;23.58;10.82;;;;;;;;;;5011748;28;20209;-70
2023/04/10 01:29:56;;;;;;;22.23;11.23;;;;;;;;;;5011854;28;20266;-66
2023/04/10 01:32:23;;;;;;;21.52;10.57;;;;;;;;;;5011291;28;20037;-67
2023/04/10 01:34:53;;;;;;;19.85;11.00;;;;;;;;;;5011631;28;20396;-66
2023/04/10 01:37:29;;;;;;;21.55;10.65;;;;;;;;;;5011427;28;20037;-65
2023/04/10 01:40:02;;;;;;;20.55;11.02;;;;;;;;;;5011487;28;20453;-64
2023/04/10 01:42:31;;;;;;;20.73;11.13;;;;;;;;;;5011322;28;20397;-68
2023/04/10 01:44:58;;;;;;;20.55;11.48;;;;;;;;;;5011395;28;20033;-65
2023/04/10 01:47:24;;;;;;;23.27;11.48;;;;;;;;;;5002093;28;20029;-64
2023/04/10 01:49:51;;;;;;;22.35;11.55;;;;;;;;;;5073064;28;20025;-69
2023/04/10 01:52:18;;;;;;;24.05;12.90;;;;;;;;;;5071486;28;20070;-68
2023/04/10 01:54:47;;;;;;;26.90;12.20;;;;;;;;;;5053194;28;20036;-70
2023/04/10 01:57:14;;;;;;;26.00;12.07;;;;;;;;;;5051124;28;20075;-71
2023/04/10 01:59:39;;;;;;;22.20;11.15;;;;;;;;;;5015108;28;20403;-71
2023/04/10 02:02:06;;;;;;;19.13;10.82;;;;;;;;;;5032916;28;20025;-72
2023/04/10 02:04:32;;;;;;;25.85;12.00;;;;;;;;;;5033018;28;20040;-64
2023/04/10 02:07:17;;;;;;;18.35;10.57;;;;;;;;;;5038740;28;20021;-71
2023/04/10 02:09:57;;;;;;;18.83;9.90;;;;;;;;;;5052869;28;20104;-69
2023/04/10 02:12:28;;;;;;;15.18;8.45;;;;;;;;;;5052738;28;20365;-74
2023/04/10 02:14:55;;;;;;;14.88;7.53;;;;;;;;;;5052661;28;20052;-69
2023/04/10 02:17:26;;;;;;;16.67;8.60;;;;;;;;;;5052584;28;20082;-73
2023/04/10 02:19:53;;;;;;;14.85;7.78;;;;;;;;;;5052598;28;20029;-64
2023/04/10 02:22:19;;;;;;;13.52;7.60;;;;;;;;;;5052542;28;20032;-66
2023/04/10 02:24:45;;;;;;;14.88;7.85;;;;;;;;;;5052641;28;20036;-65
2023/04/10 02:27:10;;;;;;;17.73;8.77;;;;;;;;;;5052500;28;20380;-67
2023/04/10 02:29:36;;;;;;;16.67;7.82;;;;;;;;;;5052431;28;20025;-66
2023/04/10 02:32:02;;;;;;;12.73;6.13;;;;;;;;;;5052251;28;20029;-66
2023/04/10 02:34:27;;;;;;;13.77;7.20;;;;;;;;;;5052375;28;20052;-65
2023/04/10 02:36:53;;;;;;;14.25;6.78;;;;;;;;;;5034591;28;20029;-67
2023/04/10 02:39:19;;;;;;;13.40;6.80;;;;;;;;;;5052284;28;20056;-68
2023/04/10 02:41:45;;;;;;;12.90;6.47;;;;;;;;;;5034435;28;20064;-67
2023/04/10 02:44:11;;;;;;;14.32;6.82;;;;;;;;;;5052415;28;20025;-64
2023/04/10 02:46:37;;;;;;;12.32;7.00;;;;;;;;;;5052078;28;20036;-62
2023/04/10 02:49:02;;;;;;;12.85;7.15;;;;;;;;;;5052264;28;20016;-65
2023/04/10 02:51:27;;;;;;;11.32;6.57;;;;;;;;;;5052343;28;20025;-74
2023/04/10 02:53:53;;;;;;;13.45;7.07;;;;;;;;;;5052159;28;20399;-68
2023/04/10 02:56:18;;;;;;;12.00;6.70;;;;;;;;;;5052098;28;20031;-70
2023/04/10 02:58:45;;;;;;;14.18;6.70;;;;;;;;;;5066262;28;20033;-75
2023/04/10 03:01:11;;;;;;;16.70;7.40;;;;;;;;;;5071771;28;20044;-75
2023/04/10 03:03:36;;;;;;;13.52;6.43;;;;;;;;;;5072167;28;20363;-75
2023/04/10 03:06:01;;;;;;;15.70;6.30;;;;;;;;;;5065194;28;20070;-74
2023/04/10 03:08:29;;;;;;;13.60;7.15;;;;;;;;;;5052150;28;20028;-71
2023/04/10 03:10:54;;;;;;;11.88;6.97;;;;;;;;;;5052089;28;20029;-67
2023/04/10 03:13:22;;;;;;;11.93;7.40;;;;;;;;;;5052131;28;20029;-71
2023/04/10 03:15:47;;;;;;;9.77;6.32;;;;;;;;;;5051771;28;20028;-74
2023/04/10 03:18:13;;;;;;;10.50;6.72;;;;;;;;;;5051980;28;20479;-63
2023/04/10 03:20:38;;;;;;;11.25;6.60;;;;;;;;;;5052047;28;20141;-74
2023/04/10 03:23:06;;;;;;;10.93;6.32;;;;;;;;;;5051845;28;20025;-65
2023/04/10 03:25:35;;;;;;;11.52;6.43;;;;;;;;;;5051971;28;20021;-72
2023/04/10 03:28:01;;;;;;;12.93;6.40;;;;;;;;;;5051851;28;20029;-66
2023/04/10 03:30:26;;;;;;;12.23;6.28;;;;;;;;;;5050951;28;20489;-66
2023/04/10 03:32:52;;;;;;;12.32;7.03;;;;;;;;;;5054789;28;20040;-64
2023/04/10 03:35:17;;;;;;;14.50;6.32;;;;;;;;;;5055958;28;20479;-63
2023/04/10 03:37:43;;;;;;;29.08;13.85;;;;;;;;;;5038095;28;20037;-72
2023/04/10 03:40:10;;;;;;;20.00;8.82;;;;;;;;;;5056000;28;20059;-71
2023/04/10 03:42:35;;;;;;;14.02;7.85;;;;;;;;;;5055722;28;20033;-71
2023/04/10 03:45:05;;;;;;;14.00;6.93;;;;;;;;;;5055035;28;20408;-74
2023/04/10 03:47:31;;;;;;;12.85;6.88;;;;;;;;;;5055818;28;20033;-76
2023/04/10 03:49:58;;;;;;;13.38;6.82;;;;;;;;;;5055770;28;20029;-76
2023/04/10 03:52:23;;;;;;;14.35;7.05;;;;;;;;;;5055513;28;20025;-72
2023/04/10 03:54:49;;;;;;;13.45;7.45;;;;;;;;;;5055641;28;20036;-74
2023/04/10 03:57:15;;;;;;;13.88;7.07;;;;;;;;;;5039224;28;20055;-76
2023/04/10 03:59:40;;;;;;;13.43;6.93;;;;;;;;;;5075282;28;20051;-69
2023/04/10 04:02:06;;;;;;;12.35;6.90;;;;;;;;;;5075501;28;20029;-67
2023/04/10 04:04:32;;;;;;;17.40;7.55;;;;;;;;;;5075334;28;20023;-69
2023/04/10 04:06:57;;;;;;;11.70;6.57;;;;;;;;;;5075378;28;20383;-63
2023/04/10 04:09:23;;;;;;;16.50;7.20;;;;;;;;;;5075323;28;20059;-66
2023/04/10 04:11:48;;;;;;;19.05;8.60;;;;;;;;;;5075061;28;20028;-64
2023/04/10 04:14:13;;;;;;;14.88;8.05;;;;;;;;;;5075163;28;20435;-64
2023/04/10 04:16:39;;;;;;;13.00;7.72;;;;;;;;;;5075156;28;20028;-63
2023/04/10 04:19:04;;;;;;;13.82;7.47;;;;;;;;;;5075073;28;20103;-64
2023/04/10 04:21:30;;;;;;;10.52;7.28;;;;;;;;;;5075006;28;20042;-63
2023/04/10 04:23:55;;;;;;;12.15;7.55;;;;;;;;;;5075112;28;20471;-75
2023/04/10 04:26:21;;;;;;;14.73;6.70;;;;;;;;;;5074851;28;20420;-71
2023/04/10 04:28:47;;;;;;;12.00;7.75;;;;;;;;;;5075276;28;20048;-72
2023/04/10 04:31:12;;;;;;;13.27;7.25;;;;;;;;;;5074842;28;20467;-70
2023/04/10 04:33:38;;;;;;;12.90;6.80;;;;;;;;;;5074832;28;20020;-67
2023/04/10 04:36:03;;;;;;;15.00;7.13;;;;;;;;;;5075110;28;20020;-64
2023/04/10 04:38:29;;;;;;;13.90;7.05;;;;;;;;;;5074839;28;20432;-63
2023/04/10 04:40:54;;;;;;;12.00;7.25;;;;;;;;;;5074722;28;20552;-63
2023/04/10 04:43:20;;;;;;;11.65;6.97;;;;;;;;;;5073632;28;20060;-63
2023/04/10 04:45:45;;;;;;;17.15;7.03;;;;;;;;;;5074594;28;20386;-63
2023/04/10 04:48:11;;;;;;;11.18;7.38;;;;;;;;;;5074699;28;20060;-65
2023/04/10 04:50:40;;;;;;;12.63;6.78;;;;;;;;;;5074615;28;20104;-64
2023/04/10 04:53:06;;;;;;;13.45;6.53;;;;;;;;;;5055158;28;20475;-64
2023/04/10 04:55:31;;;;;;;12.15;6.97;;;;;;;;;;5054400;28;20017;-70
2023/04/10 04:57:56;;;;;;;15.38;7.40;;;;;;;;;;5046704;28;20037;-64
2023/04/10 05:00:22;;;;;;;11.68;7.18;;;;;;;;;;5034294;28;20041;-63
2023/04/10 05:02:47;;;;;;;11.68;7.03;;;;;;;;;;5034505;28;20060;-67
2023/04/10 05:05:13;;;;;;;13.73;6.80;;;;;;;;;;5034385;28;21095;-67
2023/04/10 05:07:38;;;;;;;11.52;6.82;;;;;;;;;;5034476;28;20087;-71
2023/04/10 05:10:04;;;;;;;14.85;6.65;;;;;;;;;;5034177;28;20022;-64
2023/04/10 05:12:30;;;;;;;12.20;6.85;;;;;;;;;;5049602;28;20095;-67
2023/04/10 05:14:55;;;;;;;12.30;7.18;;;;;;;;;;5034249;28;20021;-67
2023/04/10 05:17:20;;;;;;;15.13;7.85;;;;;;;;;;5034204;28;20503;-70
2023/04/10 05:19:46;;;;;;;12.15;7.28;;;;;;;;;;5034238;28;20018;-73
2023/04/10 05:22:11;;;;;;;12.10;6.90;;;;;;;;;;5034206;28;20484;-73
2023/04/10 05:24:37;;;;;;;13.55;7.80;;;;;;;;;;5033971;28;20130;-75
2023/04/10 05:27:02;;;;;;;12.93;8.25;;;;;;;;;;5033936;28;20044;-75
2023/04/10 05:29:28;;;;;;;13.23;7.72;;;;;;;;;;5034059;28;20026;-75
2023/04/10 05:31:53;;;;;;;12.07;7.90;;;;;;;;;;5033921;28;20492;-75
2023/04/10 05:34:19;;;;;;;11.68;7.15;;;;;;;;;;5033923;28;20033;-75
2023/04/10 05:36:44;;;;;;;12.10;7.32;;;;;;;;;;5033992;28;20033;-73
2023/04/10 05:39:10;;;;;;;11.27;7.53;;;;;;;;;;5033573;28;20026;-64
2023/04/10 05:41:35;;;;;;;10.30;7.18;;;;;;;;;;5033793;28;20502;-63
2023/04/10 05:44:00;;;;;;;11.00;7.18;;;;;;;;;;5041823;28;20033;-75
2023/04/10 05:46:26;;;;;;;11.07;7.05;;;;;;;;;;5053053;28;20025;-75
2023/04/10 05:48:52;;;;;;;17.15;9.40;;;;;;;;;;5053542;28;20475;-74
2023/04/10 05:51:17;;;;;;;17.48;9.73;;;;;;;;;;5053494;28;20040;-74
2023/04/10 05:53:43;;;;;;;19.60;9.73;;;;;;;;;;5053147;28;20412;-74
2023/04/10 05:56:08;;;;;;;23.02;10.98;;;;;;;;;;5052876;28;20021;-73
2023/04/10 05:58:34;;;;;;;22.13;11.95;;;;;;;;;;5066114;28;20025;-75
2023/04/10 06:00:59;;;;;;;19.67;10.93;;;;;;;;;;5073173;28;20117;-75
2023/04/10 06:03:29;;;;;;;19.55;9.93;;;;;;;;;;5073303;28;20061;-74
2023/04/10 06:05:55;;;;;;;19.38;10.63;;;;;;;;;;5072999;28;20035;-73
2023/04/10 06:08:21;;;;;;;19.00;10.65;;;;;;;;;;5072842;28;20025;-74
2023/04/10 06:10:47;;;;;;;17.17;9.95;;;;;;;;;;5073061;28;20032;-74
2023/04/10 06:13:13;;;;;;;18.58;8.93;;;;;;;;;;5073087;28;20450;-66
2023/04/10 06:15:39;;;;;;;17.27;8.90;;;;;;;;;;5072976;28;20024;-68
2023/04/10 06:18:05;;;;;;;14.68;8.68;;;;;;;;;;5072898;28;20027;-65
2023/04/10 06:20:30;;;;;;;14.50;7.85;;;;;;;;;;5072952;28;20136;-65
2023/04/10 06:22:57;;;;;;;13.68;7.70;;;;;;;;;;5072696;28;20078;-68
2023/04/10 06:25:22;;;;;;;14.18;8.88;;;;;;;;;;5072815;28;20025;-63
2023/04/10 06:27:48;;;;;;;13.13;7.95;;;;;;;;;;5072821;28;20549;-75
2023/04/10 06:30:13;;;;;;;14.57;8.05;;;;;;;;;;5072571;28;20035;-74
2023/04/10 06:32:39;;;;;;;17.38;9.00;;;;;;;;;;5072656;28;20382;-75
2023/04/10 06:35:04;;;;;;;18.33;9.77;;;;;;;;;;5072566;28;20055;-73
2023/04/10 06:37:31;;;;;;;14.52;7.78;;;;;;;;;;5072554;28;20029;-73
2023/04/10 06:40:07;;;;;;;11.93;7.88;;;;;;;;;;5072640;28;20138;-70
2023/04/10 06:42:33;;;;;;;11.38;7.03;;;;;;;;;;5072543;28;20086;-70
2023/04/10 06:44:59;;;;;;;10.40;6.43;;;;;;;;;;5072384;28;20020;-71
2023/04/10 06:47:25;;;;;;;11.57;6.28;;;;;;;;;;5072500;28;20052;-68
2023/04/10 06:49:50;;;;;;;11.90;6.22;;;;;;;;;;5072402;28;20032;-67
2023/04/10 06:52:17;;;;;;;10.07;5.78;;;;;;;;;;5072035;28;20024;-67
2023/04/10 06:54:42;;;;;;;8.35;5.20;;;;;;;;;;5072269;28;20070;-69
2023/04/10 06:57:08;;;;;;;8.30;5.22;;;;;;;;;;5069966;28;20024;-66
2023/04/10 06:59:34;;;;;;;9.88;5.85;;;;;;;;;;5032220;28;20132;-65
2023/04/10 07:02:01;;;;;;;8.82;4.93;;;;;;;;;;5032420;28;20392;-67
2023/04/10 07:04:27;;;;;;;8.18;5.60;;;;;;;;;;5032250;28;20049;-64
2023/04/10 07:06:52;;;;;;;11.25;5.55;;;;;;;;;;5031516;28;20103;-64
2023/04/10 07:09:17;;;;;;;9.93;5.63;;;;;;;;;;5032330;28;20017;-63
2023/04/10 07:11:43;;;;;;;10.57;5.65;;;;;;;;;;5044387;28;20522;-69
2023/04/10 07:14:08;;;;;;;8.88;5.40;;;;;;;;;;5051281;28;20040;-66
2023/04/10 07:16:34;;;;;;;9.30;5.35;;;;;;;;;;5051402;28;20025;-63
2023/04/10 07:18:59;;;;;;;7.43;5.35;;;;;;;;;;5048537;28;20470;-65
2023/04/10 07:21:26;;;;;;;8.55;5.60;;;;;;;;;;5050633;28;20586;-74
2023/04/10 07:23:51;;;;;;;10.77;5.15;;;;;;;;;;5050639;28;20021;-73
2023/04/10 07:26:17;;;;;;;8.57;5.18;;;;;;;;;;5050697;28;20036;-68
2023/04/10 07:28:43;;;;;;;7.05;4.78;;;;;;;;;;5051248;28;20367;-64
2023/04/10 07:31:09;;;;;;;7.47;4.85;;;;;;;;;;5051106;28;20061;-70
2023/04/10 07:33:35;;;;;;;8.90;5.38;;;;;;;;;;5051041;28;20048;-65
2023/04/10 07:36:02;;;;;;;9.23;4.88;;;;;;;;;;5050856;28;20876;-67
2023/04/10 07:38:27;;;;;;;8.18;5.13;;;;;;;;;;5050400;28;20116;-64
2023/04/10 07:40:59;;;;;;;7.70;4.63;;;;;;;;;;5051668;28;20104;-71
2023/04/10 07:43:24;;;;;;;9.45;5.30;;;;;;;;;;5051756;28;20025;-64
2023/04/10 07:45:50;;;;;;;8.75;5.50;;;;;;;;;;5051476;28;20029;-69
2023/04/10 07:48:16;;;;;;;8.95;5.00;;;;;;;;;;5045318;28;20025;-73
2023/04/10 07:50:41;;;;;;;9.98;4.75;;;;;;;;;;5051458;28;20056;-64
2023/04/10 07:53:07;;;;;;;10.35;5.50;;;;;;;;;;5051702;28;20024;-67
2023/04/10 07:55:43;;;;;;;9.20;5.18;;;;;;;;;;5051837;28;20021;-65
2023/04/10 07:58:09;;;;;;;11.57;5.28;;;;;;;;;;5061055;28;20035;-64
2023/04/10 08:00:34;;;;;;;7.47;4.78;;;;;;;;;;5071629;28;20094;-72
2023/04/10 08:03:00;;;;;;;11.32;4.80;;;;;;;;;;5071603;28;20037;-69
2023/04/10 08:05:26;;;;;;;8.40;5.03;;;;;;;;;;5066327;28;20074;-73
2023/04/10 08:07:51;;;;;;;6.63;4.43;;;;;;;;;;5051516;28;20033;-73
2023/04/10 08:10:17;;;;;;;8.13;4.30;;;;;;;;;;5051510;28;20029;-71
2023/04/10 08:12:42;;;;;;;8.75;5.10;;;;;;;;;;5051507;28;20043;-72
2023/04/10 08:15:08;;;;;;;7.15;4.53;;;;;;;;;;5033709;28;20021;-72
2023/04/10 08:17:34;;;;;;;7.88;4.28;;;;;;;;;;5052629;28;20029;-69
2023/04/10 08:19:59;;;;;;;8.65;4.68;;;;;;;;;;5055116;28;20021;-73
2023/04/10 08:22:25;;;;;;;8.50;4.85;;;;;;;;;;5055253;28;20498;-72
2023/04/10 08:24:50;;;;;;;8.88;4.40;;;;;;;;;;5054997;28;20036;-73
2023/04/10 08:27:15;;;;;;;8.77;4.63;;;;;;;;;;5055023;28;20029;-71
2023/04/10 08:29:41;;;;;;;6.10;4.20;;;;;;;;;;5055111;28;20067;-67
2023/04/10 08:32:07;;;;;;;7.25;4.05;;;;;;;;;;5061793;28;20479;-65
2023/04/10 08:34:33;;;;;;;7.03;4.43;;;;;;;;;;5074981;28;20024;-65
2023/04/10 08:36:58;;;;;;;10.45;4.80;;;;;;;;;;5074993;28;20075;-64
2023/04/10 08:39:24;;;;;;;8.60;5.13;;;;;;;;;;5075116;28;20021;-71
2023/04/10 08:41:49;;;;;;;8.27;4.63;;;;;;;;;;5070285;28;20066;-65
2023/04/10 08:44:15;;;;;;;7.10;4.50;;;;;;;;;;5054878;28;20025;-64
2023/04/10 08:46:42;;;;;;;5.53;4.18;;;;;;;;;;5054829;28;20086;-67
2023/04/10 08:49:14;;;;;;;8.05;4.80;;;;;;;;;;5054571;28;20365;-68
2023/04/10 08:51:48;;;;;;;9.05;5.55;;;;;;;;;;5054837;28;20028;-69
2023/04/10 08:54:20;;;;;;;9.43;5.20;;;;;;;;;;5054777;28;20025;-67
2023/04/10 08:56:50;;;;;;;8.88;5.22;;;;;;;;;;5054700;28;20115;-73
2023/04/10 08:59:16;;;;;;;7.72;4.90;;;;;;;;;;5035670;28;20108;-70
2023/04/10 09:01:41;;;;;;;7.22;4.55;;;;;;;;;;5034373;28;20037;-72
2023/04/10 09:04:07;;;;;;;9.10;4.90;;;;;;;;;;5034611;28;20121;-73
2023/04/10 09:06:32;;;;;;;9.05;4.95;;;;;;;;;;5034516;28;20147;-67
2023/04/10 09:08:58;;;;;;;8.45;5.63;;;;;;;;;;5034480;28;20044;-66
2023/04/10 09:11:50;;;;;;;11.75;5.30;;;;;;;;;;5034496;28;20035;-65
2023/04/10 09:14:23;;;;;;;7.13;4.80;;;;;;;;;;5034224;28;20057;-67
2023/04/10 09:16:49;;;;;;;8.88;5.07;;;;;;;;;;5033977;28;20087;-66
2023/04/10 09:19:31;;;;;;;8.63;5.05;;;;;;;;;;5034334;28;20365;-64
2023/04/10 09:21:56;;;;;;;7.10;4.72;;;;;;;;;;5052158;28;20031;-70
2023/04/10 09:24:23;;;;;;;8.02;4.72;;;;;;;;;;5054028;28;20099;-70
2023/04/10 09:26:48;;;;;;;7.45;5.10;;;;;;;;;;5054071;28;20029;-66
2023/04/10 09:29:15;;;;;;;8.55;5.20;;;;;;;;;;5053299;28;20036;-63
2023/04/10 09:31:42;;;;;;;7.60;4.93;;;;;;;;;;5053754;28;20033;-70
2023/04/10 09:34:17;;;;;;;7.45;4.70;;;;;;;;;;5053959;28;20029;-64
2023/04/10 09:36:44;;;;;;;8.15;4.70;;;;;;;;;;5053657;28;20075;-63
2023/04/10 09:39:11;;;;;;;5.90;4.28;;;;;;;;;;5053850;28;20021;-66
2023/04/10 09:41:50;;;;;;;7.07;4.50;;;;;;;;;;5053877;28;20063;-63
2023/04/10 09:44:18;;;;;;;7.35;4.75;;;;;;;;;;5053626;28;20078;-64
2023/04/10 09:46:45;;;;;;;7.40;4.88;;;;;;;;;;5053443;28;20021;-63
2023/04/10 09:49:11;;;;;;;6.85;4.60;;;;;;;;;;5053644;28;20053;-67
2023/04/10 09:51:38;;;;;;;7.00;4.47;;;;;;;;;;5053578;28;20071;-69
2023/04/10 09:54:03;;;;;;;8.40;4.38;;;;;;;;;;5053285;28;20086;-66
2023/04/10 09:56:30;;;;;;;8.68;4.63;;;;;;;;;;5052810;28;20120;-70
2023/04/10 09:59:00;;;;;;;7.88;4.20;;;;;;;;;;5037408;28;20026;-71
2023/04/10 10:01:33;;;;;;;7.78;4.43;;;;;;;;;;5044160;28;20037;-65
2023/04/10 10:04:01;;;;;;;5.75;4.07;;;;;;;;;;5053468;28;20071;-68
2023/04/10 10:06:26;;;;;;;6.45;3.85;;;;;;;;;;5053345;28;20490;-67
2023/04/10 10:08:52;;;;;;;8.90;4.20;;;;;;;;;;5053200;28;20037;-64
2023/04/10 10:11:22;;;;;;;10.32;4.35;;;;;;;;;;5052546;28;20031;-63
2023/04/10 10:13:51;;;;;;;7.63;4.57;;;;;;;;;;5053263;28;20033;-65
2023/04/10 10:16:33;;;;;;;8.73;4.53;;;;;;;;;;5052928;28;20039;-68
2023/04/10 10:19:10;;;;;;;6.68;3.97;;;;;;;;;;5052552;28;20060;-69
2023/04/10 10:21:37;;;;;;;5.88;4.15;;;;;;;;;;5051256;28;20033;-72
2023/04/10 10:24:07;;;;;;;7.50;4.18;;;;;;;;;;5053082;28;20052;-64
2023/04/10 10:26:34;;;;;;;7.20;4.22;;;;;;;;;;5053099;28;20335;-76
2023/04/10 10:29:04;;;;;;;8.45;4.50;;;;;;;;;;5052686;28;20053;-74
2023/04/10 10:31:32;;;;;;;;;;;;;;;;;;5053447;28;20027;-75
2023/04/10 10:34:03;;;;;;;7.40;4.35;;;;;;;;;;5052948;28;19916;-74
2023/04/10 10:36:30;;;;;;;6.32;4.00;;;;;;;;;;5052878;28;20025;-75
2023/04/10 10:39:24;;;;;;;10.32;4.90;;;;;;;;;;5052669;28;20086;-74
2023/04/10 10:42:09;;;;;;;6.72;4.30;;;;;;;;;;5052655;28;20024;-75
2023/04/10 10:44:43;;;;;;;6.70;3.92;;;;;;;;;;5052302;28;20032;-65
2023/04/10 10:47:22;;;;;;;6.50;4.13;;;;;;;;;;5052197;28;20033;-75
2023/04/10 10:49:50;;;;;;;8.50;5.10;;;;;;;;;;5052065;28;20082;-73
2023/04/10 10:52:36;;;;;;;6.88;4.68;;;;;;;;;;5052372;28;20384;-73
2023/04/10 10:55:21;;;;;;;8.55;5.75;;;;;;;;;;5052165;28;20037;-75
2023/04/10 10:57:48;;;;;;;8.80;5.35;;;;;;;;;;5045274;28;20035;-70
2023/04/10 11:00:20;;;;;;;9.63;6.15;;;;;;;;;;5031919;28;20077;-75
2023/04/10 11:03:09;;;;;;;8.43;5.70;;;;;;;;;;5032242;28;20021;-75
2023/04/10 11:05:54;;;;;;;11.45;6.80;;;;;;;;;;5051537;28;20036;-70
2023/04/10 11:08:34;;;;;;;9.32;6.20;;;;;;;;;;5049544;28;20108;-75
2023/04/10 11:11:04;;;;;;;8.55;6.43;;;;;;;;;;5052050;28;20025;-70
2023/04/10 11:13:33;;;;;;;10.48;6.88;;;;;;;;;;5051919;28;20036;-66
2023/04/10 11:16:01;;;;;;;12.32;6.68;;;;;;;;;;5051972;28;20091;-71
2023/04/10 11:18:45;;;;;;;12.98;7.57;;;;;;;;;;5051965;28;20029;-66
2023/04/10 11:21:14;;;;;;;12.02;6.72;;;;;;;;;;5052068;28;20108;-74
2023/04/10 11:23:49;;;;;;;10.57;7.70;;;;;;;;;;5051926;28;20028;-75
2023/04/10 11:26:40;;;;;;;10.23;7.43;;;;;;;;;;5051797;28;20468;-74
2023/04/10 11:29:11;;;;;;;8.00;6.20;;;;;;;;;;5055580;28;20033;-73
2023/04/10 11:31:37;;;;;;;7.95;5.43;;;;;;;;;;5051952;28;20041;-75
2023/04/10 11:34:06;;;;;;;10.05;7.47;;;;;;;;;;5051839;28;20035;-62
2023/04/10 11:36:34;;;;;;;10.80;7.50;;;;;;;;;;5051915;28;20108;-74
2023/04/10 11:39:09;;;;;;;9.18;6.80;;;;;;;;;;5051614;28;20444;-75
2023/04/10 11:41:41;;;;;;;11.48;7.30;;;;;;;;;;5051645;28;20119;-62
2023/04/10 11:44:12;;;;;;;12.68;8.18;;;;;;;;;;5051824;28;20120;-64
2023/04/10 11:46:42;;;;;;;12.25;7.85;;;;;;;;;;5051658;28;20020;-62
2023/04/10 11:49:09;;;;;;;13.23;8.35;;;;;;;;;;5051659;28;20025;-63
2023/04/10 11:51:36;;;;;;;11.02;7.00;;;;;;;;;;5033827;28;20040;-62
2023/04/10 11:54:10;;;;;;;12.32;8.52;;;;;;;;;;5055198;28;20025;-62
2023/04/10 11:56:38;;;;;;;11.65;7.95;;;;;;;;;;5055427;28;20112;-66
2023/04/10 11:59:09;;;;;;;11.07;7.43;;;;;;;;;;5072163;28;20037;-61
2023/04/10 12:01:38;;;;;;;11.60;8.30;;;;;;;;;;5065582;28;20032;-62
2023/04/10 12:04:15;;;;;;;14.10;8.80;;;;;;;;;;5055579;28;20052;-63
2023/04/10 12:06:46;;;;;;;10.50;8.30;;;;;;;;;;5055370;28;20043;-63
2023/04/10 12:09:16;;;;;;;11.63;8.65;;;;;;;;;;5055375;28;20032;-62
2023/04/10 12:11:52;;;;;;;13.18;8.18;;;;;;;;;;5037347;28;20048;-65
2023/04/10 12:14:22;;;;;;;14.18;8.93;;;;;;;;;;5055459;28;20037;-62
2023/04/10 12:16:49;;;;;;;17.10;9.25;;;;;;;;;;5054919;28;20029;-65
2023/04/10 12:19:15;;;;;;;10.50;7.15;;;;;;;;;;5055256;28;20049;-62
2023/04/10 12:21:44;;;;;;;12.25;7.60;;;;;;;;;;5055230;28;20032;-65
2023/04/10 12:24:11;;;;;;;11.10;7.03;;;;;;;;;;5055265;28;20021;-63
2023/04/10 12:26:37;;;;;;;13.00;7.95;;;;;;;;;;5054860;28;20108;-61
2023/04/10 12:29:05;;;;;;;9.77;6.28;;;;;;;;;;5054786;28;20108;-62
2023/04/10 12:31:35;;;;;;;13.95;8.10;;;;;;;;;;5055244;28;20391;-66
2023/04/10 12:34:02;;;;;;;11.43;8.20;;;;;;;;;;5055087;28;20391;-64
2023/04/10 12:36:29;;;;;;;14.38;7.30;;;;;;;;;;5054933;28;20029;-69
2023/04/10 12:38:55;;;;;;;12.82;7.22;;;;;;;;;;5054816;28;20048;-63
2023/04/10 12:41:23;;;;;;;12.73;5.63;;;;;;;;;;5054471;28;20033;-64
2023/04/10 12:43:50;;;;;;;17.35;8.48;;;;;;;;;;5054547;28;20479;-68
2023/04/10 12:46:27;;;;;;;13.45;8.45;;;;;;;;;;5054611;28;20055;-63
2023/04/10 12:48:54;;;;;;;12.95;8.18;;;;;;;;;;5054909;28;20029;-65
2023/04/10 12:51:46;;;;;;;11.35;7.80;;;;;;;;;;5054572;28;20072;-63
2023/04/10 12:54:27;;;;;;;13.68;8.40;;;;;;;;;;5036619;28;20021;-62
2023/04/10 12:56:53;;;;;;;11.38;7.60;;;;;;;;;;5054359;28;20120;-62
2023/04/10 12:59:18;;;;;;;8.85;6.15;;;;;;;;;;5035093;28;20080;-64
2023/04/10 13:01:44;;;;;;;13.48;5.65;;;;;;;;;;5034600;28;20041;-66
2023/04/10 13:04:10;;;;;;;11.73;7.45;;;;;;;;;;5033453;28;20472;-66
2023/04/10 13:06:46;;;;;;;13.68;7.32;;;;;;;;;;5034396;28;20479;-68
2023/04/10 13:09:12;;;;;;;10.73;6.57;;;;;;;;;;5034186;28;20025;-72
2023/04/10 13:11:38;;;;;;;18.10;8.80;;;;;;;;;;5034346;28;20026;-74
2023/04/10 13:14:03;;;;;;;10.35;6.03;;;;;;;;;;5034382;28;20460;-75
2023/04/10 13:16:29;;;;;;;11.48;6.90;;;;;;;;;;5034326;28;20032;-74
2023/04/10 13:18:54;;;;;;;11.27;6.30;;;;;;;;;;5016119;28;20030;-74
2023/04/10 13:21:24;;;;;;;10.90;6.90;;;;;;;;;;5034110;28;20037;-74
2023/04/10 13:23:50;;;;;;;;;;;;;;;;;;5034323;28;20032;-72
2023/04/10 13:26:15;;;;;;;10.57;7.60;;;;;;;;;;5034021;28;19913;-74
2023/04/10 13:28:40;;;;;;;11.27;7.05;;;;;;;;;;5033994;28;20033;-66
2023/04/10 13:31:06;;;;;;;12.65;7.00;;;;;;;;;;5033923;28;20028;-62
2023/04/10 13:33:31;;;;;;;10.02;6.50;;;;;;;;;;5033996;28;20029;-66
2023/04/10 13:35:57;;;;;;;6.68;4.82;;;;;;;;;;5033832;28;20022;-76
2023/04/10 13:38:22;;;;;;;12.50;7.13;;;;;;;;;;5033601;28;20025;-62
2023/04/10 13:40:48;;;;;;;8.88;5.93;;;;;;;;;;5033657;28;20027;-74
2023/04/10 13:43:13;;;;;;;12.15;6.43;;;;;;;;;;5049085;28;20258;-76
2023/04/10 13:45:39;;;;;;;10.77;6.03;;;;;;;;;;5053599;28;20020;-75
2023/04/10 13:48:06;;;;;;;8.63;5.57;;;;;;;;;;5053639;28;20036;-62
2023/04/10 13:50:34;;;;;;;8.48;5.43;;;;;;;;;;5053582;28;20498;-67
2023/04/10 13:53:00;;;;;;;9.20;6.68;;;;;;;;;;5053257;28;20025;-65
2023/04/10 13:55:25;;;;;;;12.75;5.63;;;;;;;;;;5053361;28;20056;-64
2023/04/10 13:57:51;;;;;;;8.73;5.72;;;;;;;;;;5040691;28;20092;-74
2023/04/10 14:00:16;;;;;;;10.10;5.32;;;;;;;;;;5053163;28;20045;-70
2023/04/10 14:02:42;;;;;;;10.93;6.07;;;;;;;;;;5053180;28;20111;-61
2023/04/10 14:05:08;;;;;;;10.88;6.40;;;;;;;;;;5053210;28;20031;-62
2023/04/10 14:07:33;;;;;;;7.60;4.78;;;;;;;;;;5053125;28;20017;-63
2023/04/10 14:10:00;;;;;;;11.32;5.97;;;;;;;;;;5053119;28;20410;-65
2023/04/10 14:12:26;;;;;;;10.48;5.78;;;;;;;;;;5053222;28;20032;-62
2023/04/10 14:14:52;;;;;;;9.50;5.85;;;;;;;;;;5052683;28;20025;-62
2023/04/10 14:17:17;;;;;;;7.43;4.88;;;;;;;;;;5052868;28;20108;-74
2023/04/10 14:19:45;;;;;;;6.97;4.45;;;;;;;;;;5052954;28;20388;-66
2023/04/10 14:22:11;;;;;;;8.02;4.50;;;;;;;;;;5052616;28;20025;-62
2023/04/10 14:24:36;;;;;;;9.45;4.93;;;;;;;;;;5052787;28;20036;-63
2023/04/10 14:27:02;;;;;;;10.63;5.30;;;;;;;;;;5052729;28;20032;-62
2023/04/10 14:29:28;;;;;;;8.95;5.13;;;;;;;;;;5053008;28;20532;-64
2023/04/10 14:31:54;;;;;;;7.90;5.05;;;;;;;;;;5052610;28;20111;-61
2023/04/10 14:34:19;;;;;;;8.05;4.45;;;;;;;;;;5052684;28;20171;-62
2023/04/10 14:36:45;;;;;;;8.43;5.70;;;;;;;;;;5052391;28;20032;-62